createdAt,value
2022-09-05T00:00:57.765Z,12.64
2022-09-05T00:03:58.126Z,12.31
2022-09-05T00:06:45.966Z,12.51
2022-09-05T00:09:42.061Z,12.13
2022-09-05T00:12:12.194Z,12.35
2022-09-05T00:15:18.994Z,12.37
2022-09-05T00:20:55.125Z,12.34
2022-09-05T00:24:37.782Z,12.29
2022-09-05T00:24:42.031Z,12.24
2022-09-05T00:27:51.041Z,12.17
2022-09-05T00:31:06.958Z,12.02
2022-09-05T00:33:18.548Z,11.99
2022-09-05T00:36:18.485Z,11.92
2022-09-05T00:39:03.792Z,11.85
2022-09-05T00:41:34.540Z,11.72
2022-09-05T00:44:04.715Z,11.69
2022-09-05T00:46:43.799Z,11.57
2022-09-05T00:49:27.985Z,11.22
2022-09-05T00:52:06.855Z,11.39
2022-09-05T00:55:11.542Z,11.33
2022-09-05T00:58:35.843Z,11.19
2022-09-05T01:01:26.175Z,10.90
2022-09-05T01:04:43.343Z,11.13
2022-09-05T01:07:23.829Z,11.05
2022-09-05T01:10:23.620Z,10.97
2022-09-05T01:13:29.676Z,10.86
2022-09-05T01:16:27.101Z,10.85
2022-09-05T01:19:16.055Z,10.82
2022-09-05T01:22:03.447Z,10.81
2022-09-05T01:24:43.834Z,10.86
2022-09-05T01:28:36.991Z,10.90
2022-09-05T01:31:23.876Z,10.91
2022-09-05T01:34:01.218Z,10.80
2022-09-05T01:37:32.890Z,10.79
2022-09-05T01:40:26.701Z,10.75
2022-09-05T01:43:23.893Z,10.44
2022-09-05T01:46:35.258Z,10.61
2022-09-05T01:49:41.032Z,10.67
2022-09-05T01:52:38.903Z,10.58
2022-09-05T01:56:06.421Z,10.51
2022-09-05T01:59:09.398Z,10.48
2022-09-05T02:02:14.841Z,10.45
2022-09-05T02:05:47.218Z,10.40
2022-09-05T02:08:54.063Z,10.37
2022-09-05T02:12:21.668Z,10.32
2022-09-05T02:15:05.073Z,9.97
2022-09-05T02:17:49.525Z,10.11
2022-09-05T02:20:43.830Z,10.11
2022-09-05T02:23:25.996Z,10.05
2022-09-05T02:26:29.904Z,9.96
2022-09-05T02:29:29.878Z,9.95
2022-09-05T02:32:19.805Z,9.96
2022-09-05T02:35:13.761Z,9.93
2022-09-05T02:40:44.227Z,9.78
2022-09-05T02:45:10.694Z,9.69
2022-09-05T02:45:23.937Z,9.59
2022-09-05T02:47:47.374Z,9.73
2022-09-05T02:57:23.209Z,9.74
2022-09-05T02:57:35.241Z,9.73
2022-09-05T02:57:40.975Z,9.69
2022-09-05T03:00:12.003Z,9.44
2022-09-05T03:03:17.565Z,9.61
2022-09-05T03:06:34.462Z,9.60
2022-09-05T03:09:34.352Z,9.57
2022-09-05T03:12:55.926Z,9.55
2022-09-05T03:15:54.798Z,9.54
2022-09-05T03:18:46.590Z,9.49
2022-09-05T03:21:54.832Z,9.48
2022-09-05T03:25:41.388Z,9.44
2022-09-05T03:28:21.503Z,9.36
2022-09-05T03:31:49.407Z,9.23
2022-09-05T03:34:31.192Z,9.22
2022-09-05T03:37:25.418Z,8.90
2022-09-05T03:40:27.315Z,9.15
2022-09-05T03:43:26.210Z,9.11
2022-09-05T03:46:17.759Z,9.10
2022-09-05T03:53:11.467Z,9.06
2022-09-05T03:57:08.812Z,8.74
2022-09-05T03:57:24.261Z,9.00
2022-09-05T03:59:07.082Z,8.70
2022-09-05T04:04:03.700Z,8.95
2022-09-05T04:08:17.614Z,8.89
2022-09-05T04:08:32.098Z,8.95
2022-09-05T04:11:10.345Z,8.94
2022-09-05T04:13:41.161Z,8.95
2022-09-05T04:16:28.806Z,8.80
2022-09-05T04:19:43.627Z,9.05
2022-09-05T04:23:03.872Z,9.11
2022-09-05T04:26:11.559Z,9.18
2022-09-05T04:29:11.173Z,9.23
2022-09-05T04:32:18.053Z,9.25
2022-09-05T04:35:22.624Z,9.32
2022-09-05T04:38:16.262Z,9.43
2022-09-05T04:41:00.444Z,9.45
2022-09-05T04:43:36.177Z,9.47
2022-09-05T04:46:48.522Z,9.56
2022-09-05T04:49:40.017Z,9.65
2022-09-05T04:52:37.685Z,9.76
2022-09-05T04:55:14.237Z,9.93
2022-09-05T04:57:53.046Z,10.16
2022-09-05T05:05:58.655Z,10.56
2022-09-05T05:06:19.101Z,10.95
2022-09-05T05:06:44.454Z,11.24
2022-09-05T05:09:27.617Z,11.52
2022-09-05T05:18:03.478Z,11.63
2022-09-05T05:18:15.974Z,11.91
2022-09-05T05:18:53.352Z,12.04
2022-09-05T05:21:28.987Z,12.17
2022-09-05T05:24:05.004Z,12.41
2022-09-05T05:27:02.926Z,12.49
2022-09-05T05:29:38.276Z,12.79
2022-09-05T05:32:07.900Z,12.87
2022-09-05T05:34:48.884Z,13.19
2022-09-05T05:37:43.518Z,13.13
2022-09-05T05:40:17.584Z,13.46
2022-09-05T05:42:46.982Z,13.18
2022-09-05T05:45:29.155Z,13.47
2022-09-05T05:48:08.681Z,13.75
2022-09-05T05:51:34.742Z,14.01
2022-09-05T05:54:50.471Z,14.06
2022-09-05T05:58:15.499Z,14.43
2022-09-05T06:01:38.741Z,14.69
2022-09-05T06:04:25.863Z,14.95
2022-09-05T06:08:12.222Z,15.11
2022-09-05T06:14:49.881Z,15.16
2022-09-05T06:14:57.363Z,15.22
2022-09-05T06:17:37.600Z,15.46
2022-09-05T06:22:04.075Z,15.82
2022-09-05T06:23:55.572Z,16.05
2022-09-05T06:26:46.499Z,16.31
2022-09-05T06:29:56.186Z,16.58
2022-09-05T06:32:40.225Z,16.56
2022-09-05T06:35:54.321Z,16.65
2022-09-05T06:38:58.513Z,16.45
2022-09-05T06:42:03.332Z,16.51
2022-09-05T06:44:40.538Z,16.44
2022-09-05T06:47:23.881Z,16.84
2022-09-05T06:50:24.560Z,17.14
2022-09-05T06:53:30.936Z,17.38
2022-09-05T06:56:26.122Z,17.25
2022-09-05T06:59:19.011Z,16.83
2022-09-05T07:02:23.870Z,17.38
2022-09-05T07:05:40.307Z,17.94
2022-09-05T07:08:34.805Z,18.06
2022-09-05T07:11:25.459Z,17.52
2022-09-05T07:14:21.717Z,18.16
2022-09-05T07:17:53.829Z,18.18
2022-09-05T07:21:16.001Z,18.30
2022-09-05T07:24:06.177Z,18.61
2022-09-05T07:26:54.757Z,18.48
2022-09-05T07:29:35.793Z,18.85
2022-09-05T07:32:08.365Z,18.74
2022-09-05T07:34:38.523Z,18.87
2022-09-05T07:37:44.520Z,19.14
2022-09-05T07:40:25.072Z,19.44
2022-09-05T07:43:35.573Z,19.82
2022-09-05T07:46:23.673Z,19.64
2022-09-05T07:49:16.354Z,19.46
2022-09-05T07:56:43.946Z,20.02
2022-09-05T07:57:03.722Z,19.73
2022-09-05T07:57:51.432Z,20.06
2022-09-05T08:00:29.683Z,19.98
2022-09-05T08:03:08.388Z,19.65
2022-09-05T08:05:48.154Z,19.49
2022-09-05T08:08:24.629Z,19.58
2022-09-05T08:11:24.842Z,19.81
2022-09-05T08:14:44.315Z,19.13
2022-09-05T08:16:53.127Z,19.51
2022-09-05T08:20:08.919Z,19.33
2022-09-05T08:23:07.411Z,19.84
2022-09-05T08:25:58.769Z,19.51
2022-09-05T08:28:45.355Z,20.06
2022-09-05T08:31:21.990Z,19.32
2022-09-05T08:33:56.979Z,20.14
2022-09-05T08:36:36.630Z,20.61
2022-09-05T08:39:07.728Z,21.45
2022-09-05T08:42:39.240Z,21.20
2022-09-05T08:46:40.345Z,21.23
2022-09-05T08:48:48.182Z,20.83
2022-09-05T08:51:26.023Z,21.09
2022-09-05T08:54:27.410Z,21.38
2022-09-05T08:57:39.924Z,21.72
2022-09-05T09:00:19.214Z,22.21
2022-09-05T09:03:52.177Z,21.75
2022-09-05T09:06:45.327Z,21.63
2022-09-05T09:09:54.585Z,20.97
2022-09-05T09:12:58.808Z,20.92
2022-09-05T09:16:11.139Z,20.60
2022-09-05T09:19:04.726Z,20.26
2022-09-05T09:22:34.971Z,20.42
2022-09-05T09:25:31.844Z,21.66
2022-09-05T09:28:49.832Z,22.24
2022-09-05T09:31:40.016Z,22.92
2022-09-05T09:34:26.526Z,22.96
2022-09-05T09:37:50.801Z,22.96
2022-09-05T09:40:29.003Z,23.28
2022-09-05T09:43:28.160Z,22.69
2022-09-05T09:46:41.546Z,22.77
2022-09-05T09:49:31.172Z,23.15
2022-09-05T09:52:20.681Z,23.01
2022-09-05T09:55:23.969Z,22.87
2022-09-05T09:58:01.284Z,22.67
2022-09-05T10:00:51.795Z,22.10
2022-09-05T10:07:26.915Z,22.45
2022-09-05T10:10:43.933Z,23.32
2022-09-05T10:10:54.224Z,23.36
2022-09-05T10:13:08.743Z,23.79
2022-09-05T10:16:25.810Z,23.06
2022-09-05T10:23:15.832Z,23.85
2022-09-05T10:26:22.314Z,23.06
2022-09-05T10:29:17.043Z,23.96
2022-09-05T10:35:08.048Z,23.80
2022-09-05T10:35:09.931Z,24.13
2022-09-05T10:38:10.150Z,23.89
2022-09-05T10:40:46.332Z,22.50
2022-09-05T10:43:43.610Z,22.90
2022-09-05T10:46:53.039Z,23.21
2022-09-05T10:49:30.962Z,23.53
2022-09-05T10:52:37.669Z,23.84
2022-09-05T10:55:15.124Z,23.86
2022-09-05T10:58:12.854Z,23.98
2022-09-05T11:02:27.453Z,24.49
2022-09-05T11:05:07.540Z,24.69
2022-09-05T11:08:11.898Z,24.23
2022-09-05T11:11:08.131Z,24.06
2022-09-05T11:13:57.817Z,24.61
2022-09-05T11:16:52.377Z,24.88
2022-09-05T11:19:30.084Z,24.83
2022-09-05T11:22:22.362Z,24.91
2022-09-05T11:25:03.429Z,25.02
2022-09-05T11:27:44.370Z,24.89
2022-09-05T11:30:38.100Z,24.67
2022-09-05T11:39:48.260Z,24.23
2022-09-05T11:40:10.360Z,25.15
2022-09-05T11:40:28.409Z,25.66
2022-09-05T11:43:35.942Z,25.96
2022-09-05T11:46:25.453Z,26.50
2022-09-05T11:49:14.688Z,26.28
2022-09-05T11:52:22.615Z,24.09
2022-09-05T11:55:20.862Z,24.18
2022-09-05T11:58:44.908Z,25.37
2022-09-05T12:01:42.419Z,25.36
2022-09-05T12:04:31.507Z,25.95
2022-09-05T12:07:26.270Z,26.35
2022-09-05T12:10:46.799Z,27.08
2022-09-05T12:13:33.694Z,26.98
2022-09-05T12:16:10.366Z,26.59
2022-09-05T12:18:56.699Z,26.62
2022-09-05T12:22:16.442Z,26.03
2022-09-05T12:26:17.340Z,26.54
2022-09-05T12:28:54.634Z,27.43
2022-09-05T12:33:17.519Z,26.91
2022-09-05T12:36:04.423Z,27.80
2022-09-05T12:40:51.989Z,26.82
2022-09-05T12:41:43.842Z,27.66
2022-09-05T12:44:42.679Z,27.88
2022-09-05T12:47:20.578Z,27.21
2022-09-05T12:50:15.023Z,28.69
2022-09-05T12:52:51.763Z,27.60
2022-09-05T12:56:20.500Z,27.91
2022-09-05T13:02:56.792Z,27.52
2022-09-05T13:03:14.368Z,27.91
2022-09-05T13:05:02.363Z,28.13
2022-09-05T13:07:56.425Z,27.39
2022-09-05T13:14:24.300Z,27.86
2022-09-05T13:15:02.404Z,26.77
2022-09-05T13:16:42.825Z,27.45
2022-09-05T13:19:31.423Z,26.74
2022-09-05T13:22:02.890Z,26.99
2022-09-05T13:24:39.020Z,26.29
2022-09-05T13:27:25.170Z,26.41
2022-09-05T13:34:44.428Z,27.01
2022-09-05T13:38:05.153Z,25.46
2022-09-05T13:38:21.303Z,26.27
2022-09-05T13:39:09.905Z,26.27
2022-09-05T13:41:49.211Z,27.26
2022-09-05T13:44:25.408Z,26.76
2022-09-05T13:47:28.849Z,26.82
2022-09-05T13:50:24.173Z,26.78
2022-09-05T13:53:26.959Z,26.73
2022-09-05T13:56:03.747Z,27.10
2022-09-05T13:58:56.570Z,27.23
2022-09-05T14:01:58.711Z,26.56
2022-09-05T14:05:19.485Z,26.49
2022-09-05T14:08:33.755Z,26.88
2022-09-05T14:11:41.150Z,26.85
2022-09-05T14:15:13.512Z,26.60
2022-09-05T14:18:21.197Z,25.71
2022-09-05T14:21:19.431Z,25.81
2022-09-05T14:24:27.528Z,26.44
2022-09-05T14:27:00.645Z,25.86
2022-09-05T14:29:49.671Z,25.51
2022-09-05T14:37:37.130Z,25.04
2022-09-05T14:37:44.747Z,25.34
2022-09-05T14:38:59.462Z,25.63
2022-09-05T14:42:07.672Z,25.73
2022-09-05T14:44:58.153Z,26.23
2022-09-05T14:48:02.561Z,26.19
2022-09-05T14:50:40.992Z,26.13
2022-09-05T14:57:23.090Z,26.13
2022-09-05T15:02:42.474Z,25.68
2022-09-05T15:02:54.232Z,25.54
2022-09-05T15:05:23.308Z,25.45
2022-09-05T15:08:10.422Z,25.70
2022-09-05T15:12:15.503Z,25.48
2022-09-05T15:14:11.299Z,25.32
2022-09-05T15:16:45.867Z,25.39
2022-09-05T15:20:06.464Z,25.49
2022-09-05T15:22:43.362Z,25.40
2022-09-05T15:25:28.044Z,25.11
2022-09-05T15:27:56.570Z,24.85
2022-09-05T15:30:36.518Z,24.61
2022-09-05T15:33:36.389Z,24.57
2022-09-05T15:36:06.895Z,24.35
2022-09-05T15:38:55.234Z,24.59
2022-09-05T15:41:29.655Z,24.46
2022-09-05T15:44:09.996Z,23.95
2022-09-05T15:46:49.423Z,23.79
2022-09-05T15:49:55.988Z,24.33
2022-09-05T15:52:29.157Z,24.12
2022-09-05T15:55:22.616Z,23.77
2022-09-05T15:58:05.912Z,23.49
2022-09-05T16:00:34.328Z,23.54
2022-09-05T16:05:53.355Z,23.31
2022-09-05T16:10:36.593Z,23.05
2022-09-05T16:10:38.136Z,23.28
2022-09-05T16:12:16.628Z,22.62
2022-09-05T16:16:33.684Z,22.39
2022-09-05T16:23:14.245Z,22.54
2022-09-05T16:23:33.323Z,22.15
2022-09-05T16:24:11.603Z,21.95
2022-09-05T16:26:49.179Z,21.81
2022-09-05T16:29:27.115Z,21.29
2022-09-05T16:32:05.538Z,21.35
2022-09-05T16:35:01.481Z,21.10
2022-09-05T16:38:11.548Z,20.82
2022-09-05T16:40:48.587Z,20.50
2022-09-05T16:43:27.105Z,20.27
2022-09-05T16:46:07.092Z,20.24
2022-09-05T16:49:12.052Z,20.18
2022-09-05T16:52:17.256Z,19.91
2022-09-05T16:54:58.739Z,19.87
2022-09-05T16:57:38.038Z,19.66
2022-09-05T17:00:10.028Z,19.24
2022-09-05T17:03:28.665Z,18.78
2022-09-05T17:06:29.369Z,17.89
2022-09-05T17:09:21.372Z,17.93
2022-09-05T17:12:00.693Z,17.71
2022-09-05T17:14:54.343Z,17.54
2022-09-05T17:18:19.126Z,17.31
2022-09-05T17:20:29.614Z,16.90
2022-09-05T17:29:17.074Z,16.76
2022-09-05T17:29:33.325Z,16.34
2022-09-05T17:29:35.288Z,16.40
2022-09-05T17:31:55.580Z,16.15
2022-09-05T17:35:00.041Z,15.48
2022-09-05T17:38:21.482Z,15.77
2022-09-05T17:41:12.209Z,15.67
2022-09-05T17:43:41.639Z,15.51
2022-09-05T17:46:26.566Z,15.37
2022-09-05T17:49:19.420Z,15.23
2022-09-05T17:51:53.925Z,15.10
2022-09-05T17:54:32.200Z,14.91
2022-09-05T17:57:28.660Z,14.78
2022-09-05T18:00:12.021Z,14.59
2022-09-05T18:02:56.570Z,14.44
2022-09-05T18:06:05.805Z,13.98
2022-09-05T18:08:46.450Z,14.14
2022-09-05T18:11:25.485Z,13.97
2022-09-05T18:14:24.614Z,13.83
2022-09-05T18:17:36.410Z,13.72
2022-09-05T18:19:49.351Z,13.67
2022-09-05T18:22:28.129Z,13.23
2022-09-05T18:25:30.867Z,13.47
2022-09-05T18:28:31.652Z,13.44
2022-09-05T18:31:40.728Z,13.38
2022-09-05T18:34:16.625Z,13.29
2022-09-05T18:36:57.051Z,13.31
2022-09-05T18:39:29.450Z,13.32
2022-09-05T18:42:33.388Z,13.33
2022-09-05T18:45:16.514Z,13.27
2022-09-05T18:47:59.212Z,12.77
2022-09-05T18:50:37.604Z,12.70
2022-09-05T18:53:12.994Z,12.91
2022-09-05T18:56:20.232Z,12.81
2022-09-05T18:59:24.295Z,12.62
2022-09-05T19:02:03.162Z,12.36
2022-09-05T19:05:01.373Z,12.28
2022-09-05T19:07:41.014Z,12.17
2022-09-05T19:10:36.075Z,12.07
2022-09-05T19:13:28.719Z,11.98
2022-09-05T19:16:43.315Z,11.94
2022-09-05T19:19:24.916Z,11.77
2022-09-05T19:22:36.074Z,11.64
2022-09-05T19:24:51.873Z,11.64
2022-09-05T19:28:55.508Z,11.54
2022-09-05T19:36:50.326Z,11.11
2022-09-05T19:37:03.613Z,11.30
2022-09-05T19:37:06.620Z,11.10
2022-09-05T19:43:24.145Z,10.83
2022-09-05T19:47:29.585Z,10.65
2022-09-05T19:47:47.527Z,10.68
2022-09-05T19:48:07.556Z,10.55
2022-09-05T19:50:36.383Z,10.59
2022-09-05T19:53:08.751Z,10.51
2022-09-05T19:55:39.267Z,10.48
2022-09-05T19:58:20.764Z,10.39
2022-09-05T20:01:02.211Z,10.28
2022-09-05T20:03:39.129Z,9.37
2022-09-05T20:06:29.875Z,10.17
2022-09-05T20:09:19.366Z,10.03
2022-09-05T20:12:00.247Z,9.99
2022-09-05T20:14:32.412Z,9.68
2022-09-05T20:17:27.966Z,9.92
2022-09-05T20:20:18.149Z,9.64
2022-09-05T20:23:09.846Z,9.74
2022-09-05T20:25:47.464Z,9.64
2022-09-05T20:28:23.869Z,9.66
2022-09-05T20:31:00.570Z,9.62
2022-09-05T20:33:55.542Z,9.48
2022-09-05T20:43:12.540Z,9.13
2022-09-05T20:43:20.651Z,9.13
2022-09-05T20:43:24.417Z,9.41
2022-09-05T20:46:05.234Z,9.35
2022-09-05T20:54:05.272Z,9.30
2022-09-05T20:54:18.230Z,8.98
2022-09-05T20:54:39.498Z,9.23
2022-09-05T20:57:17.836Z,9.17
2022-09-05T20:59:47.601Z,9.10
2022-09-05T21:02:32.546Z,8.96
2022-09-05T21:05:21.051Z,8.88
2022-09-05T21:08:06.883Z,8.82
2022-09-05T21:10:54.913Z,8.83
2022-09-05T21:13:30.205Z,8.78
2022-09-05T21:15:59.093Z,8.67
2022-09-05T21:18:33.773Z,8.59
2022-09-05T21:21:27.935Z,8.54
2022-09-05T21:24:16.858Z,8.33
2022-09-05T21:26:49.172Z,8.41
2022-09-05T21:29:27.401Z,8.31
2022-09-05T21:32:02.649Z,8.36
2022-09-05T21:34:48.611Z,8.07
2022-09-05T21:37:18.309Z,8.33
2022-09-05T21:39:59.191Z,8.22
2022-09-05T21:44:10.514Z,7.94
2022-09-05T21:47:42.997Z,7.99
2022-09-05T21:48:17.216Z,8.16
2022-09-05T21:50:54.476Z,7.92
2022-09-05T21:56:37.315Z,8.05
2022-09-05T21:59:24.478Z,8.01
2022-09-05T21:59:45.391Z,7.83
2022-09-05T22:02:17.154Z,7.55
2022-09-05T22:04:47.410Z,7.77
2022-09-05T22:07:31.663Z,7.65
2022-09-05T22:10:04.439Z,7.71
2022-09-05T22:12:39.268Z,7.74
2022-09-05T22:15:27.493Z,7.45
2022-09-05T22:18:17.067Z,7.68
2022-09-05T22:21:31.914Z,7.58
2022-09-05T22:23:47.184Z,7.56
2022-09-05T22:26:17.821Z,7.14
2022-09-05T22:28:49.661Z,7.44
2022-09-05T22:31:19.527Z,7.43
2022-09-05T22:33:50.845Z,7.13
2022-09-05T22:36:19.951Z,7.36
2022-09-05T22:38:48.444Z,7.37
2022-09-05T22:41:17.167Z,7.12
2022-09-05T22:43:46.686Z,7.41
2022-09-05T22:46:15.405Z,7.47
2022-09-05T22:48:43.778Z,7.45
2022-09-05T22:51:12.515Z,7.25
2022-09-05T22:53:40.752Z,7.45
2022-09-05T22:56:10.570Z,7.13
2022-09-05T22:58:45.983Z,7.40
2022-09-05T23:01:14.426Z,7.38
2022-09-05T23:03:43.018Z,7.05
2022-09-05T23:06:11.538Z,7.01
2022-09-05T23:08:40.461Z,7.20
2022-09-05T23:11:11.876Z,7.11
2022-09-05T23:13:42.065Z,7.00
2022-09-05T23:16:11.981Z,6.94
2022-09-05T23:18:41.253Z,6.90
2022-09-05T23:21:20.102Z,6.93
2022-09-05T23:23:49.202Z,6.81
2022-09-05T23:26:18.057Z,6.82
2022-09-05T23:28:46.383Z,6.87
2022-09-05T23:31:14.783Z,6.59
2022-09-05T23:33:43.444Z,6.68
2022-09-05T23:36:14.467Z,6.77
2022-09-05T23:38:45.466Z,6.81
2022-09-05T23:41:16.058Z,6.90
2022-09-05T23:43:44.263Z,6.89
2022-09-05T23:46:12.512Z,6.94
2022-09-05T23:48:41.236Z,6.67
2022-09-05T23:51:12.221Z,6.89
2022-09-05T23:53:41.214Z,6.82
2022-09-05T23:56:11.344Z,6.53
2022-09-05T23:58:40.232Z,6.71
